createdAt,value
2018-07-22T00:01:44.018Z,18.30
2018-07-22T00:04:12.223Z,18.20
2018-07-22T00:06:39.675Z,18.20
2018-07-22T00:09:07.879Z,18.30
2018-07-22T00:11:36.100Z,18.20
2018-07-22T00:14:04.363Z,18.20
2018-07-22T00:16:32.539Z,18.20
2018-07-22T00:19:00.748Z,18.20
2018-07-22T00:21:28.962Z,18.10
2018-07-22T00:23:57.175Z,18.10
2018-07-22T00:26:25.388Z,18.10
2018-07-22T00:28:53.599Z,18.10
2018-07-22T00:31:21.818Z,18.10
2018-07-22T00:33:50.032Z,18.00
2018-07-22T00:36:18.254Z,18.00
2018-07-22T00:38:46.467Z,18.00
2018-07-22T00:41:14.689Z,18.00
2018-07-22T00:43:42.904Z,17.90
2018-07-22T00:46:11.121Z,17.80
2018-07-22T00:48:39.326Z,17.80
2018-07-22T00:51:07.547Z,17.80
2018-07-22T00:53:35.759Z,17.70
2018-07-22T00:56:03.974Z,17.70
2018-07-22T00:58:32.192Z,17.70
2018-07-22T01:01:00.411Z,17.70
2018-07-22T01:03:28.615Z,17.70
2018-07-22T01:05:56.843Z,17.60
2018-07-22T01:08:25.051Z,17.60
2018-07-22T01:10:53.271Z,17.60
2018-07-22T01:13:21.487Z,17.60
2018-07-22T01:15:49.703Z,17.50
2018-07-22T01:18:17.912Z,17.50
2018-07-22T01:20:46.131Z,17.50
2018-07-22T01:23:14.345Z,17.40
2018-07-22T01:25:42.568Z,17.40
2018-07-22T01:28:10.776Z,17.40
2018-07-22T01:30:38.998Z,17.40
2018-07-22T01:33:07.202Z,17.30
2018-07-22T01:35:35.424Z,17.30
2018-07-22T01:38:03.639Z,17.30
2018-07-22T01:40:31.861Z,17.30
2018-07-22T01:43:00.081Z,17.30
2018-07-22T01:45:28.304Z,17.30
2018-07-22T01:47:56.516Z,17.20
2018-07-22T01:50:24.724Z,17.20
2018-07-22T01:52:52.949Z,17.20
2018-07-22T01:55:21.154Z,17.20
2018-07-22T01:57:49.372Z,17.20
2018-07-22T02:00:17.581Z,17.20
2018-07-22T02:02:45.796Z,17.20
2018-07-22T02:05:14.011Z,17.10
2018-07-22T02:07:42.236Z,17.10
2018-07-22T02:10:10.452Z,17.10
2018-07-22T02:12:38.672Z,17.10
2018-07-22T02:15:06.892Z,17.10
2018-07-22T02:17:35.111Z,17.00
2018-07-22T02:20:03.316Z,17.00
2018-07-22T02:22:31.546Z,17.00
2018-07-22T02:24:59.755Z,17.00
2018-07-22T02:27:27.979Z,17.00
2018-07-22T02:29:56.206Z,17.00
2018-07-22T02:32:24.427Z,17.00
2018-07-22T02:34:52.628Z,17.00
2018-07-22T02:37:20.849Z,17.00
2018-07-22T02:39:48.300Z,17.00
2018-07-22T02:42:16.517Z,16.90
2018-07-22T02:44:44.733Z,16.90
2018-07-22T02:47:12.951Z,16.90
2018-07-22T02:49:40.391Z,16.90
2018-07-22T02:52:08.613Z,16.80
2018-07-22T02:54:36.837Z,16.80
2018-07-22T02:57:05.056Z,16.80
2018-07-22T02:59:33.271Z,16.80
2018-07-22T03:02:01.489Z,16.80
2018-07-22T03:04:29.705Z,16.80
2018-07-22T03:06:57.920Z,16.80
2018-07-22T03:09:26.130Z,16.80
2018-07-22T03:11:54.356Z,16.80
2018-07-22T03:14:22.563Z,16.80
2018-07-22T03:16:50.797Z,16.70
2018-07-22T03:19:19.021Z,16.70
2018-07-22T03:21:47.228Z,16.70
2018-07-22T03:24:15.452Z,16.70
2018-07-22T03:26:43.668Z,16.70
2018-07-22T03:29:11.111Z,16.70
2018-07-22T03:31:39.327Z,16.60
2018-07-22T03:34:06.771Z,16.60
2018-07-22T03:36:34.983Z,16.60
2018-07-22T03:39:03.196Z,16.60
2018-07-22T03:41:31.418Z,16.60
2018-07-22T03:43:59.635Z,16.60
2018-07-22T03:46:27.857Z,16.50
2018-07-22T03:48:56.068Z,16.60
2018-07-22T03:51:24.283Z,16.60
2018-07-22T03:53:52.495Z,16.60
2018-07-22T03:56:20.718Z,16.60
2018-07-22T03:58:48.931Z,16.60
2018-07-22T04:01:17.147Z,16.60
2018-07-22T04:03:45.359Z,16.60
2018-07-22T04:06:13.569Z,16.60
2018-07-22T04:08:41.784Z,16.60
2018-07-22T04:11:09.996Z,16.60
2018-07-22T04:13:38.211Z,16.60
2018-07-22T04:16:06.429Z,16.60
2018-07-22T04:18:34.643Z,16.60
2018-07-22T04:21:02.863Z,16.60
2018-07-22T04:23:31.086Z,16.50
2018-07-22T04:25:59.299Z,16.50
2018-07-22T04:28:27.515Z,16.50
2018-07-22T04:30:55.722Z,16.50
2018-07-22T04:33:23.946Z,16.50
2018-07-22T04:35:52.156Z,16.50
2018-07-22T04:38:19.599Z,16.50
2018-07-22T04:40:47.859Z,16.50
2018-07-22T04:43:16.039Z,16.50
2018-07-22T04:45:44.252Z,16.40
2018-07-22T04:48:11.699Z,16.40
2018-07-22T04:50:39.928Z,16.40
2018-07-22T04:53:08.140Z,16.40
2018-07-22T04:55:36.351Z,16.40
2018-07-22T04:58:04.577Z,16.40
2018-07-22T05:00:32.784Z,16.40
2018-07-22T05:03:01.003Z,16.40
2018-07-22T05:05:29.211Z,16.50
2018-07-22T05:07:57.432Z,16.50
2018-07-22T05:10:24.884Z,16.50
2018-07-22T05:12:53.111Z,16.50
2018-07-22T05:15:21.314Z,16.50
2018-07-22T05:17:49.542Z,16.50
2018-07-22T05:20:17.755Z,16.60
2018-07-22T05:22:45.977Z,16.60
2018-07-22T05:25:14.188Z,16.60
2018-07-22T05:27:42.407Z,16.60
2018-07-22T05:30:10.625Z,16.60
2018-07-22T05:32:38.852Z,16.70
2018-07-22T05:35:07.062Z,16.60
2018-07-22T05:37:35.269Z,16.70
2018-07-22T05:40:03.483Z,16.70
2018-07-22T05:42:31.694Z,16.70
2018-07-22T05:44:59.917Z,16.70
2018-07-22T05:47:28.127Z,16.80
2018-07-22T05:49:56.343Z,16.80
2018-07-22T05:52:24.575Z,16.90
2018-07-22T05:54:52.791Z,16.90
2018-07-22T05:57:20.240Z,16.90
2018-07-22T05:59:47.688Z,16.90
2018-07-22T06:02:15.904Z,17.10
2018-07-22T06:04:44.120Z,17.30
2018-07-22T06:07:12.327Z,17.50
2018-07-22T06:09:40.551Z,17.80
2018-07-22T06:12:08.780Z,17.90
2018-07-22T06:14:36.979Z,18.00
2018-07-22T06:17:05.202Z,18.20
2018-07-22T06:19:33.419Z,18.30
2018-07-22T06:22:01.642Z,18.40
2018-07-22T06:24:29.855Z,18.60
2018-07-22T06:26:58.075Z,18.70
2018-07-22T06:29:26.283Z,18.80
2018-07-22T06:31:54.494Z,19.00
2018-07-22T06:34:22.720Z,19.00
2018-07-22T06:36:50.937Z,19.20
2018-07-22T06:39:19.148Z,19.40
2018-07-22T06:41:47.355Z,19.50
2018-07-22T06:44:15.585Z,19.80
2018-07-22T06:46:43.856Z,20.00
2018-07-22T06:49:12.022Z,20.20
2018-07-22T06:51:40.255Z,20.40
2018-07-22T06:54:08.472Z,20.60
2018-07-22T06:56:36.686Z,20.80
2018-07-22T06:59:04.900Z,21.00
2018-07-22T07:01:33.132Z,21.20
2018-07-22T07:04:01.348Z,21.40
2018-07-22T07:06:29.556Z,21.60
2018-07-22T07:08:57.762Z,21.80
2018-07-22T07:11:26.014Z,21.90
2018-07-22T07:13:54.227Z,22.00
2018-07-22T07:16:22.431Z,22.10
2018-07-22T07:18:50.659Z,22.10
2018-07-22T07:21:18.862Z,22.10
2018-07-22T07:23:46.311Z,22.10
2018-07-22T07:26:13.763Z,22.30
2018-07-22T07:28:41.976Z,22.50
2018-07-22T07:31:10.201Z,22.60
2018-07-22T07:33:38.429Z,22.70
2018-07-22T07:36:06.627Z,22.70
2018-07-22T07:38:34.836Z,22.80
2018-07-22T07:41:03.043Z,22.80
2018-07-22T07:43:31.263Z,22.90
2018-07-22T07:45:59.485Z,23.00
2018-07-22T07:48:27.696Z,23.10
2018-07-22T07:50:55.912Z,23.20
2018-07-22T07:53:24.138Z,23.10
2018-07-22T07:55:52.343Z,23.20
2018-07-22T07:58:20.555Z,23.30
2018-07-22T08:00:48.775Z,23.30
2018-07-22T08:03:16.983Z,23.40
2018-07-22T08:05:45.207Z,23.60
2018-07-22T08:08:13.418Z,23.60
2018-07-22T08:10:41.644Z,23.70
2018-07-22T08:13:09.092Z,23.70
2018-07-22T08:15:37.307Z,23.80
2018-07-22T08:18:05.525Z,23.90
2018-07-22T08:20:33.745Z,24.00
2018-07-22T08:23:01.948Z,24.20
2018-07-22T08:25:30.169Z,24.30
2018-07-22T08:27:58.384Z,24.40
2018-07-22T08:30:26.648Z,24.50
2018-07-22T08:32:54.820Z,24.60
2018-07-22T08:35:23.039Z,24.60
2018-07-22T08:37:51.253Z,24.70
2018-07-22T08:40:19.479Z,24.70
2018-07-22T08:42:47.717Z,24.50
2018-07-22T08:45:15.933Z,24.60
2018-07-22T08:47:44.262Z,24.70
2018-07-22T08:50:12.420Z,24.80
2018-07-22T08:52:40.626Z,25.00
2018-07-22T08:55:09.044Z,25.20
2018-07-22T08:57:37.256Z,25.20
2018-07-22T09:00:04.704Z,25.20
2018-07-22T09:02:32.918Z,25.40
2018-07-22T09:05:01.189Z,25.50
2018-07-22T09:07:29.399Z,25.50
2018-07-22T09:09:56.861Z,25.50
2018-07-22T09:12:25.080Z,25.80
2018-07-22T09:14:53.308Z,25.80
2018-07-22T09:17:20.765Z,25.80
2018-07-22T09:19:48.993Z,25.80
2018-07-22T09:22:17.199Z,25.80
2018-07-22T09:24:44.653Z,25.80
2018-07-22T09:27:12.864Z,25.90
2018-07-22T09:29:41.075Z,26.00
2018-07-22T09:32:09.309Z,25.90
2018-07-22T09:34:37.521Z,25.90
2018-07-22T09:37:05.736Z,26.10
2018-07-22T09:39:33.953Z,26.10
2018-07-22T09:42:02.169Z,26.10
2018-07-22T09:44:30.389Z,26.10
2018-07-22T09:46:58.604Z,26.20
2018-07-22T09:49:26.056Z,26.10
2018-07-22T09:51:54.274Z,26.20
2018-07-22T09:54:22.476Z,26.20
2018-07-22T09:56:50.695Z,26.20
2018-07-22T09:59:19.072Z,26.10
2018-07-22T10:01:47.281Z,26.10
2018-07-22T10:04:15.487Z,26.30
2018-07-22T10:06:43.708Z,26.40
2018-07-22T10:09:11.161Z,26.30
2018-07-22T10:11:39.371Z,26.50
2018-07-22T10:14:07.597Z,26.70
2018-07-22T10:16:35.040Z,26.70
2018-07-22T10:19:03.261Z,26.80
2018-07-22T10:21:31.471Z,26.60
2018-07-22T10:23:59.685Z,26.80
2018-07-22T10:26:27.899Z,26.80
2018-07-22T10:28:56.122Z,27.00
2018-07-22T10:31:24.346Z,27.30
2018-07-22T10:33:52.596Z,27.50
2018-07-22T10:36:20.804Z,27.60
2018-07-22T10:38:49.010Z,27.80
2018-07-22T10:41:17.221Z,27.80
2018-07-22T10:43:45.435Z,27.90
2018-07-22T10:46:13.648Z,28.10
2018-07-22T10:48:41.872Z,28.20
2018-07-22T10:51:10.075Z,28.10
2018-07-22T10:53:38.304Z,28.00
2018-07-22T10:56:06.513Z,27.80
2018-07-22T10:58:34.725Z,27.70
2018-07-22T11:01:02.937Z,27.80
2018-07-22T11:03:31.147Z,28.10
2018-07-22T11:05:59.361Z,28.30
2018-07-22T11:08:27.575Z,28.50
2018-07-22T11:10:55.779Z,28.10
2018-07-22T11:13:24.001Z,27.70
2018-07-22T11:15:52.208Z,27.80
2018-07-22T11:18:20.419Z,27.90
2018-07-22T11:20:48.636Z,28.20
2018-07-22T11:23:16.860Z,28.40
2018-07-22T11:25:45.076Z,28.60
2018-07-22T11:28:13.287Z,28.60
2018-07-22T11:30:41.495Z,28.60
2018-07-22T11:33:09.716Z,28.80
2018-07-22T11:35:37.923Z,29.00
2018-07-22T11:38:06.153Z,29.00
2018-07-22T11:40:34.364Z,28.90
2018-07-22T11:43:02.585Z,29.00
2018-07-22T11:45:30.789Z,29.30
2018-07-22T11:47:59.016Z,29.40
2018-07-22T11:50:27.286Z,29.50
2018-07-22T11:52:55.457Z,29.60
2018-07-22T11:55:23.668Z,29.70
2018-07-22T11:57:51.882Z,29.90
2018-07-22T12:00:20.097Z,29.60
2018-07-22T12:02:48.307Z,29.40
2018-07-22T12:05:16.522Z,29.60
2018-07-22T12:07:44.009Z,29.60
2018-07-22T12:10:12.171Z,30.10
2018-07-22T12:12:40.388Z,30.30
2018-07-22T12:15:08.596Z,30.60
2018-07-22T12:17:36.062Z,30.60
2018-07-22T12:20:04.265Z,31.00
2018-07-22T12:22:32.476Z,30.80
2018-07-22T12:25:00.689Z,30.90
2018-07-22T12:27:28.917Z,30.80
2018-07-22T12:29:57.151Z,30.80
2018-07-22T12:32:25.361Z,30.50
2018-07-22T12:34:53.572Z,30.50
2018-07-22T12:37:21.015Z,30.50
2018-07-22T12:39:48.480Z,30.70
2018-07-22T12:42:16.696Z,30.90
2018-07-22T12:44:44.915Z,30.80
2018-07-22T12:47:12.360Z,30.80
2018-07-22T12:49:40.571Z,30.20
2018-07-22T12:52:08.828Z,30.50
2018-07-22T12:54:37.035Z,30.90
2018-07-22T12:57:05.252Z,31.20
2018-07-22T12:59:33.473Z,31.40
2018-07-22T13:02:01.693Z,31.20
2018-07-22T13:04:29.895Z,30.80
2018-07-22T13:06:58.202Z,30.20
2018-07-22T13:09:26.321Z,30.20
2018-07-22T13:11:54.531Z,30.50
2018-07-22T13:14:22.751Z,30.80
2018-07-22T13:16:50.959Z,31.20
2018-07-22T13:19:19.183Z,30.90
2018-07-22T13:21:47.389Z,30.80
2018-07-22T13:24:15.613Z,31.00
2018-07-22T13:26:43.815Z,31.20
2018-07-22T13:29:11.259Z,31.20
2018-07-22T13:31:39.463Z,30.90
2018-07-22T13:34:06.915Z,30.90
2018-07-22T13:36:35.129Z,30.60
2018-07-22T13:39:03.348Z,30.90
2018-07-22T13:41:31.560Z,30.90
2018-07-22T13:43:59.780Z,31.20
2018-07-22T13:46:27.989Z,31.30
2018-07-22T13:48:55.448Z,31.30
2018-07-22T13:51:23.659Z,31.10
2018-07-22T13:53:51.874Z,31.30
2018-07-22T13:56:20.096Z,31.50
2018-07-22T13:58:48.322Z,31.80
2018-07-22T14:01:16.549Z,31.80
2018-07-22T14:03:44.772Z,31.90
2018-07-22T14:06:12.980Z,32.00
2018-07-22T14:08:41.192Z,32.00
2018-07-22T14:11:09.392Z,32.00
2018-07-22T14:13:36.861Z,32.00
2018-07-22T14:16:05.068Z,31.60
2018-07-22T14:18:33.292Z,31.60
2018-07-22T14:21:01.505Z,31.60
2018-07-22T14:23:29.728Z,31.60
2018-07-22T14:25:57.956Z,31.70
2018-07-22T14:28:26.160Z,31.80
2018-07-22T14:30:54.371Z,32.00
2018-07-22T14:33:22.589Z,32.10
2018-07-22T14:35:50.805Z,31.70
2018-07-22T14:38:19.009Z,31.10
2018-07-22T14:40:47.308Z,31.00
2018-07-22T14:43:15.436Z,30.90
2018-07-22T14:45:43.651Z,30.50
2018-07-22T14:48:11.851Z,30.10
2018-07-22T14:50:40.068Z,30.10
2018-07-22T14:53:08.271Z,30.30
2018-07-22T14:55:35.724Z,30.30
2018-07-22T14:58:03.170Z,30.40
2018-07-22T15:00:31.390Z,30.80
2018-07-22T15:02:59.603Z,30.90
2018-07-22T15:05:27.807Z,31.20
2018-07-22T15:07:56.033Z,31.20
2018-07-22T15:10:23.499Z,31.20
2018-07-22T15:12:51.725Z,31.40
2018-07-22T15:15:19.932Z,31.20
2018-07-22T15:17:47.378Z,31.20
2018-07-22T15:20:15.591Z,30.80
2018-07-22T15:22:43.807Z,30.90
2018-07-22T15:25:11.256Z,30.90
2018-07-22T15:27:38.695Z,31.20
2018-07-22T15:30:06.911Z,31.70
2018-07-22T15:32:35.115Z,31.70
2018-07-22T15:35:03.339Z,31.70
2018-07-22T15:37:30.780Z,31.70
2018-07-22T15:39:59.001Z,31.70
2018-07-22T15:42:27.194Z,31.40
2018-07-22T15:44:55.416Z,31.30
2018-07-22T15:47:23.619Z,31.00
2018-07-22T15:49:51.827Z,30.90
2018-07-22T15:52:20.036Z,30.90
2018-07-22T15:54:48.282Z,31.20
2018-07-22T15:57:16.451Z,31.30
2018-07-22T15:59:44.673Z,31.30
2018-07-22T16:02:12.883Z,31.40
2018-07-22T16:04:40.325Z,31.40
2018-07-22T16:07:07.758Z,31.50
2018-07-22T16:09:35.971Z,31.20
2018-07-22T16:12:04.208Z,31.30
2018-07-22T16:14:32.423Z,31.20
2018-07-22T16:17:00.631Z,30.80
2018-07-22T16:19:28.840Z,30.60
2018-07-22T16:21:57.051Z,30.80
2018-07-22T16:24:24.491Z,30.70
2018-07-22T16:26:52.708Z,31.00
2018-07-22T16:29:20.915Z,31.10
2018-07-22T16:31:49.128Z,31.20
2018-07-22T16:34:17.337Z,31.30
2018-07-22T16:36:44.792Z,31.30
2018-07-22T16:39:13.004Z,31.30
2018-07-22T16:41:41.221Z,31.20
2018-07-22T16:44:09.447Z,31.20
2018-07-22T16:46:37.656Z,31.00
2018-07-22T16:49:05.863Z,30.60
2018-07-22T16:51:34.090Z,30.20
2018-07-22T16:54:02.289Z,29.70
2018-07-22T16:56:30.497Z,29.10
2018-07-22T16:58:58.695Z,28.70
2018-07-22T17:01:26.916Z,28.40
2018-07-22T17:03:55.120Z,28.20
2018-07-22T17:06:23.336Z,28.00
2018-07-22T17:08:51.545Z,27.90
2018-07-22T17:11:19.763Z,27.90
2018-07-22T17:13:47.971Z,28.40
2018-07-22T17:16:16.171Z,29.20
2018-07-22T17:18:44.407Z,29.90
2018-07-22T17:21:12.615Z,30.30
2018-07-22T17:23:40.824Z,30.90
2018-07-22T17:26:09.276Z,30.60
2018-07-22T17:28:37.528Z,30.10
2018-07-22T17:31:05.747Z,29.60
2018-07-22T17:33:33.901Z,29.10
2018-07-22T17:36:01.364Z,29.00
2018-07-22T17:38:29.564Z,28.10
2018-07-22T17:40:57.774Z,27.90
2018-07-22T17:43:26.000Z,27.80
2018-07-22T17:45:54.228Z,27.60
2018-07-22T17:48:21.662Z,27.60
2018-07-22T17:50:50.009Z,27.30
2018-07-22T17:53:18.215Z,27.10
2018-07-22T17:55:46.467Z,26.90
2018-07-22T17:58:14.681Z,26.70
2018-07-22T18:00:42.923Z,26.60
2018-07-22T18:03:11.130Z,26.50
2018-07-22T18:05:39.346Z,26.40
2018-07-22T18:08:07.544Z,26.40
2018-07-22T18:10:35.760Z,26.30
2018-07-22T18:13:03.436Z,26.30
2018-07-22T18:15:30.875Z,26.20
2018-07-22T18:17:58.351Z,26.10
2018-07-22T18:20:25.768Z,26.10
2018-07-22T18:22:53.987Z,25.90
2018-07-22T18:25:22.211Z,25.90
2018-07-22T18:27:50.444Z,25.80
2018-07-22T18:30:18.644Z,25.70
2018-07-22T18:32:46.859Z,25.70
2018-07-22T18:35:14.300Z,25.60
2018-07-22T18:37:42.524Z,25.60
2018-07-22T18:40:10.745Z,25.80
2018-07-22T18:42:38.952Z,25.90
2018-07-22T18:45:07.151Z,25.80
2018-07-22T18:47:34.624Z,25.80
2018-07-22T18:50:02.874Z,25.50
2018-07-22T18:52:31.088Z,25.40
2018-07-22T18:54:58.577Z,25.30
2018-07-22T18:57:26.788Z,25.20
2018-07-22T18:59:54.991Z,25.00
2018-07-22T19:02:23.207Z,24.90
2018-07-22T19:04:51.428Z,24.80
2018-07-22T19:07:19.668Z,24.70
2018-07-22T19:09:47.879Z,24.60
2018-07-22T19:12:16.100Z,24.50
2018-07-22T19:14:44.324Z,24.40
2018-07-22T19:17:12.581Z,24.30
2018-07-22T19:19:40.835Z,24.10
2018-07-22T19:22:09.017Z,24.00
2018-07-22T19:24:37.223Z,23.90
2018-07-22T19:27:05.447Z,23.90
2018-07-22T19:29:33.659Z,23.70
2018-07-22T19:32:01.866Z,23.60
2018-07-22T19:34:29.319Z,23.60
2018-07-22T19:36:57.557Z,23.40
2018-07-22T19:39:25.787Z,23.30
2018-07-22T19:41:54.024Z,23.20
2018-07-22T19:44:22.254Z,23.10
2018-07-22T19:46:50.477Z,23.00
2018-07-22T19:49:18.701Z,22.90
2018-07-22T19:51:46.919Z,22.80
2018-07-22T19:54:14.364Z,22.80
2018-07-22T19:56:42.596Z,22.60
2018-07-22T19:59:10.818Z,22.50
2018-07-22T20:01:39.028Z,22.40
2018-07-22T20:04:07.244Z,22.30
2018-07-22T20:06:35.452Z,22.20
2018-07-22T20:09:03.694Z,22.10
2018-07-22T20:11:31.898Z,22.00
2018-07-22T20:14:00.126Z,22.00
2018-07-22T20:16:28.323Z,21.80
2018-07-22T20:18:56.562Z,21.70
2018-07-22T20:21:24.772Z,21.60
2018-07-22T20:23:53.151Z,21.50
2018-07-22T20:26:21.218Z,21.50
2018-07-22T20:28:48.660Z,21.40
2018-07-22T20:31:16.868Z,21.30
2018-07-22T20:33:44.331Z,21.30
2018-07-22T20:36:12.615Z,21.00
2018-07-22T20:38:40.772Z,21.00
2018-07-22T20:41:08.971Z,20.90
2018-07-22T20:43:37.187Z,20.80
2018-07-22T20:46:05.404Z,20.70
2018-07-22T20:48:33.616Z,20.60
2018-07-22T20:51:01.843Z,20.50
2018-07-22T20:53:30.052Z,20.50
2018-07-22T20:55:58.264Z,20.40
2018-07-22T20:58:26.492Z,20.30
2018-07-22T21:00:54.699Z,20.30
2018-07-22T21:03:22.920Z,20.20
2018-07-22T21:05:51.127Z,20.10
2018-07-22T21:08:18.575Z,20.10
2018-07-22T21:10:46.802Z,20.00
2018-07-22T21:13:15.036Z,19.90
2018-07-22T21:15:43.261Z,19.90
2018-07-22T21:18:11.479Z,19.90
2018-07-22T21:20:39.697Z,19.80
2018-07-22T21:23:07.906Z,19.70
2018-07-22T21:25:36.127Z,19.60
2018-07-22T21:28:04.351Z,19.60
2018-07-22T21:30:32.566Z,19.50
2018-07-22T21:33:00.779Z,19.50
2018-07-22T21:35:28.999Z,19.40
2018-07-22T21:37:57.221Z,19.30
2018-07-22T21:40:24.689Z,19.30
2018-07-22T21:42:52.883Z,19.20
2018-07-22T21:45:21.098Z,19.20
2018-07-22T21:47:48.551Z,19.20
2018-07-22T21:50:16.773Z,19.10
2018-07-22T21:52:44.975Z,19.10
2018-07-22T21:55:12.427Z,19.10
2018-07-22T21:57:40.663Z,18.90
2018-07-22T22:00:08.884Z,18.90
2018-07-22T22:02:37.110Z,18.80
2018-07-22T22:05:05.340Z,18.80
2018-07-22T22:07:33.559Z,18.70
2018-07-22T22:10:01.874Z,18.70
2018-07-22T22:12:30.024Z,18.60
2018-07-22T22:14:58.246Z,18.50
2018-07-22T22:17:26.469Z,18.50
2018-07-22T22:19:54.688Z,18.40
2018-07-22T22:22:22.895Z,18.40
2018-07-22T22:24:51.127Z,18.30
2018-07-22T22:27:18.572Z,18.30
2018-07-22T22:29:46.831Z,18.20
2018-07-22T22:32:15.013Z,18.20
2018-07-22T22:34:43.223Z,18.10
2018-07-22T22:37:11.440Z,18.10
2018-07-22T22:39:39.656Z,18.10
2018-07-22T22:42:07.960Z,18.00
2018-07-22T22:44:36.211Z,18.00
2018-07-22T22:47:04.400Z,17.90
2018-07-22T22:49:32.616Z,17.90
2018-07-22T22:52:00.848Z,17.90
2018-07-22T22:54:29.062Z,17.80
2018-07-22T22:56:57.276Z,17.80
2018-07-22T22:59:25.500Z,17.70
2018-07-22T23:01:53.716Z,17.70
2018-07-22T23:04:21.935Z,17.60
2018-07-22T23:06:50.148Z,17.60
2018-07-22T23:09:18.366Z,17.60
2018-07-22T23:11:46.585Z,17.50
2018-07-22T23:14:14.808Z,17.50
2018-07-22T23:16:43.025Z,17.40
2018-07-22T23:19:11.252Z,17.40
2018-07-22T23:21:39.454Z,17.30
2018-07-22T23:24:07.675Z,17.30
2018-07-22T23:26:35.893Z,17.20
2018-07-22T23:29:04.119Z,17.20
2018-07-22T23:31:32.331Z,17.20
2018-07-22T23:34:00.560Z,17.10
2018-07-22T23:36:28.775Z,17.10
2018-07-22T23:38:56.992Z,17.00
2018-07-22T23:41:25.204Z,17.00
2018-07-22T23:43:52.672Z,16.90
2018-07-22T23:46:20.887Z,16.90
2018-07-22T23:48:48.336Z,16.90
2018-07-22T23:51:16.552Z,16.80
2018-07-22T23:53:43.999Z,16.80
2018-07-22T23:56:12.233Z,16.80
2018-07-22T23:58:40.435Z,16.70
